Time;durP1;ratioP1;P1;durP2;ratioP2;P2;SDS_P1;SDS_P2;PMS_P1;PMS_P2;Temp;Humidity;BMP_temperature;BMP_pressure;BME280_temperature;BME280_humidity;BME280_pressure;Samples;Min_cycle;Max_cycle;Signal;HPM_P1;HPM_P2
2024/02/02 00:02:05;;;;;;;7.07;2.67;;;;;;;1.42;100.00;98839.72;5042493;28;20049;-61
2024/02/02 00:04:32;;;;;;;8.20;2.60;;;;;;;1.31;100.00;98842.63;5052573;28;20052;-62
2024/02/02 00:06:59;;;;;;;12.70;2.90;;;;;;;1.28;100.00;98834.94;5053835;28;20588;-62
2024/02/02 00:09:25;;;;;;;6.80;2.80;;;;;;;1.24;100.00;98841.56;5038060;28;20124;-61
2024/02/02 00:11:52;;;;;;;8.00;2.28;;;;;;;1.17;100.00;98834.19;5032408;28;20235;-62
2024/02/02 00:14:19;;;;;;;7.22;2.17;;;;;;;1.10;100.00;98832.31;5044385;28;20594;-62
2024/02/02 00:16:45;;;;;;;6.75;2.17;;;;;;;1.02;100.00;98831.25;5042305;28;20056;-62
2024/02/02 00:19:12;;;;;;;7.38;1.80;;;;;;;0.92;100.00;98833.13;5050983;28;20041;-62
2024/02/02 00:21:39;;;;;;;8.95;2.20;;;;;;;0.90;100.00;98833.31;5047614;28;20059;-62
2024/02/02 00:24:06;;;;;;;12.48;2.75;;;;;;;0.93;100.00;98829.50;5037624;28;20063;-61
2024/02/02 00:26:32;;;;;;;8.30;2.47;;;;;;;0.62;100.00;98830.72;5031375;28;20727;-62
2024/02/02 00:28:59;;;;;;;5.00;2.47;;;;;;;0.50;100.00;98835.44;5034085;28;20126;-62
2024/02/02 00:31:26;;;;;;;8.25;3.03;;;;;;;0.78;100.00;98829.22;5050623;28;20091;-61
2024/02/02 00:33:52;;;;;;;10.10;3.30;;;;;;;0.70;100.00;98823.78;5045453;28;20492;-62
2024/02/02 00:36:19;;;;;;;7.40;3.13;;;;;;;0.73;100.00;98826.97;5040731;28;20079;-61
2024/02/02 00:38:46;;;;;;;5.63;2.65;;;;;;;0.77;100.00;98819.50;5049994;28;20128;-61
2024/02/02 00:41:12;;;;;;;7.43;2.72;;;;;;;0.78;100.00;98814.03;5042939;28;20090;-62
2024/02/02 00:43:39;;;;;;;7.07;2.97;;;;;;;0.79;100.00;98806.88;5029142;28;20029;-61
2024/02/02 00:46:05;;;;;;;14.63;3.58;;;;;;;1.01;100.00;98805.56;5049402;28;20434;-61
2024/02/02 00:48:33;;;;;;;8.55;3.88;;;;;;;1.17;100.00;98809.34;5048285;28;20098;-61
2024/02/02 00:51:01;;;;;;;6.50;3.03;;;;;;;1.05;100.00;98808.75;5044273;28;20052;-61
2024/02/02 00:53:27;;;;;;;9.43;3.33;;;;;;;1.01;100.00;98808.25;5032143;28;20105;-61
2024/02/02 00:55:54;;;;;;;7.88;3.10;;;;;;;1.05;100.00;98800.75;5042750;28;20037;-61
2024/02/02 00:58:21;;;;;;;7.03;2.88;;;;;;;1.26;100.00;98791.56;5038436;28;20038;-61
2024/02/02 01:00:47;;;;;;;6.38;3.10;;;;;;;1.33;100.00;98784.63;5050712;28;20049;-61
2024/02/02 01:03:14;;;;;;;8.25;3.38;;;;;;;1.28;100.00;98786.91;5041758;28;20068;-61
2024/02/02 01:05:40;;;;;;;7.88;3.03;;;;;;;1.08;100.00;98786.25;5032878;28;20050;-60
2024/02/02 01:08:07;;;;;;;6.43;3.10;;;;;;;1.01;100.00;98781.56;5045949;28;20049;-62
2024/02/02 01:10:33;;;;;;;7.38;3.03;;;;;;;0.96;100.00;98783.84;5042466;28;20044;-61
2024/02/02 01:13:00;;;;;;;7.85;3.53;;;;;;;0.82;100.00;98779.91;5042075;28;20539;-61
2024/02/02 01:15:27;;;;;;;7.95;3.72;;;;;;;0.73;100.00;98776.31;5039366;28;20049;-61
2024/02/02 01:17:54;;;;;;;5.75;3.10;;;;;;;0.83;100.00;98788.72;5026253;28;20503;-61
2024/02/02 01:20:21;;;;;;;8.82;3.22;;;;;;;0.85;100.00;98782.25;5038427;28;20037;-61
2024/02/02 01:22:48;;;;;;;12.73;3.50;;;;;;;0.64;100.00;98778.09;5034501;28;20046;-62
2024/02/02 01:25:14;;;;;;;8.90;3.05;;;;;;;0.66;100.00;98771.78;5037798;28;20653;-62
2024/02/02 01:27:41;;;;;;;9.43;3.83;;;;;;;0.58;100.00;98773.38;5052114;28;20063;-62
2024/02/02 01:30:11;;;;;;;7.75;3.55;;;;;;;0.55;100.00;98794.16;5048973;28;20068;-60
2024/02/02 01:32:38;;;;;;;8.25;3.42;;;;;;;0.54;100.00;98788.00;5031981;28;20041;-61
2024/02/02 01:35:05;;;;;;;12.35;3.97;;;;;;;0.46;100.00;98787.91;5039768;28;20044;-62
2024/02/02 01:37:32;;;;;;;8.10;2.83;;;;;;;0.41;100.00;98788.38;5041012;28;20033;-62
2024/02/02 01:39:58;;;;;;;8.73;3.75;;;;;;;0.38;100.00;98780.69;5053084;28;20044;-60
2024/02/02 01:42:25;;;;;;;9.73;3.97;;;;;;;0.42;100.00;98779.38;5048528;28;20033;-61
2024/02/02 01:44:52;;;;;;;7.18;3.80;;;;;;;0.35;100.00;98791.63;5047246;28;20538;-62
2024/02/02 01:47:18;;;;;;;11.82;4.10;;;;;;;0.29;100.00;98784.25;5040326;28;20136;-61
2024/02/02 01:49:45;;;;;;;10.82;3.97;;;;;;;0.33;100.00;98791.78;5031997;28;20049;-62
2024/02/02 01:52:12;;;;;;;7.30;3.30;;;;;;;0.51;100.00;98804.28;5040486;28;20048;-62
2024/02/02 01:54:39;;;;;;;8.02;3.80;;;;;;;0.73;100.00;98826.13;5048631;28;20043;-61
2024/02/02 01:57:06;;;;;;;6.70;4.07;;;;;;;0.62;100.00;98806.72;5041828;28;20045;-62
2024/02/02 01:59:33;;;;;;;10.15;3.97;;;;;;;0.53;100.00;98802.31;5038316;28;20116;-60
2024/02/02 02:02:00;;;;;;;11.20;3.90;;;;;;;0.72;100.00;98789.81;5038520;28;20036;-62
2024/02/02 02:04:26;;;;;;;10.30;4.22;;;;;;;0.63;100.00;98781.72;5042832;28;20072;-62
2024/02/02 02:06:53;;;;;;;7.68;3.70;;;;;;;0.47;100.00;98769.09;5043798;28;20056;-61
2024/02/02 02:09:20;;;;;;;6.50;3.20;;;;;;;0.39;100.00;98763.69;5046210;28;20045;-62
2024/02/02 02:11:47;;;;;;;10.82;3.58;;;;;;;0.55;100.00;98772.84;5037818;28;20516;-60
2024/02/02 02:14:13;;;;;;;9.98;4.13;;;;;;;0.46;100.00;98774.56;5041190;28;20051;-61
2024/02/02 02:16:40;;;;;;;11.43;4.15;;;;;;;0.36;100.00;98779.97;5026605;28;20733;-62
2024/02/02 02:19:12;;;;;;;7.55;3.55;;;;;;;0.32;100.00;98775.94;5033031;28;20124;-61
2024/02/02 02:21:39;;;;;;;8.88;3.63;;;;;;;0.35;100.00;98772.97;5043692;28;20390;-61
2024/02/02 02:24:05;;;;;;;8.25;3.60;;;;;;;0.46;100.00;98779.91;5042412;28;20041;-61
2024/02/02 02:26:32;;;;;;;8.55;3.67;;;;;;;0.56;100.00;98772.69;5037117;28;20417;-61
2024/02/02 02:28:59;;;;;;;7.63;4.20;;;;;;;0.42;100.00;98770.53;5030430;28;20124;-61
2024/02/02 02:31:27;;;;;;;11.00;3.85;;;;;;;0.55;100.00;98763.00;5027925;28;20049;-60
2024/02/02 02:33:53;;;;;;;8.98;3.38;;;;;;;0.47;100.00;98768.25;5049139;28;20048;-61
2024/02/02 02:36:23;;;;;;;9.63;3.22;;;;;;;0.44;100.00;98765.91;5040793;28;20045;-60
2024/02/02 02:38:50;;;;;;;8.52;3.90;;;;;;;0.43;100.00;98765.06;5038421;28;20041;-60
2024/02/02 02:41:17;;;;;;;10.43;4.13;;;;;;;0.37;100.00;98752.38;5045058;28;20086;-62
2024/02/02 02:43:44;;;;;;;7.22;4.22;;;;;;;0.32;100.00;98757.28;5039632;28;20064;-60
2024/02/02 02:46:10;;;;;;;9.05;3.92;;;;;;;0.34;100.00;98758.81;5051406;28;20044;-60
2024/02/02 02:48:38;;;;;;;8.02;3.60;;;;;;;0.52;100.00;98758.81;5041814;28;20055;-61
2024/02/02 02:51:05;;;;;;;8.48;3.70;;;;;;;0.48;100.00;98748.63;5049786;28;20500;-62
2024/02/02 02:53:31;;;;;;;12.95;3.65;;;;;;;0.50;100.00;98750.16;5035393;28;20041;-62
2024/02/02 02:55:58;;;;;;;10.15;4.20;;;;;;;0.71;100.00;98746.34;5040138;28;20451;-60
2024/02/02 02:58:25;;;;;;;9.93;3.88;;;;;;;0.62;100.00;98752.56;5038175;28;20037;-61
2024/02/02 03:00:52;;;;;;;8.70;3.58;;;;;;;0.59;100.00;98745.72;5052133;28;20055;-60
2024/02/02 03:03:19;;;;;;;8.43;4.28;;;;;;;0.67;100.00;98757.44;5051123;28;20044;-61
2024/02/02 03:05:46;;;;;;;11.60;3.75;;;;;;;0.68;100.00;98754.63;5060437;28;20053;-61
2024/02/02 03:08:13;;;;;;;10.15;3.22;;;;;;;0.73;100.00;98755.00;5032693;28;20049;-61
2024/02/02 03:10:41;;;;;;;7.75;3.72;;;;;;;0.73;100.00;98751.47;5029543;28;20101;-61
2024/02/02 03:13:08;;;;;;;7.30;3.17;;;;;;;0.77;100.00;98743.03;5043564;28;20106;-61
2024/02/02 03:15:35;;;;;;;10.60;3.40;;;;;;;0.74;100.00;98738.00;5054361;28;20074;-60
2024/02/02 03:18:01;;;;;;;12.10;4.03;;;;;;;0.78;100.00;98743.88;5052509;28;20048;-61
2024/02/02 03:20:28;;;;;;;9.82;4.25;;;;;;;0.86;100.00;98746.63;5032661;28;20108;-61
2024/02/02 03:22:55;;;;;;;8.88;3.65;;;;;;;0.92;100.00;98750.47;5029251;28;20052;-61
2024/02/02 03:25:22;;;;;;;8.88;4.35;;;;;;;0.96;100.00;98751.81;5033311;28;20045;-60
2024/02/02 03:27:49;;;;;;;9.10;3.60;;;;;;;0.96;100.00;98743.00;5040519;28;20099;-61
2024/02/02 03:30:15;;;;;;;8.02;3.53;;;;;;;0.90;100.00;98737.31;5042496;28;20492;-62
2024/02/02 03:32:44;;;;;;;8.35;4.03;;;;;;;0.86;100.00;98743.09;5047170;28;20645;-61
2024/02/02 03:35:11;;;;;;;8.70;4.88;;;;;;;1.00;100.00;98736.38;5037146;28;20041;-60
2024/02/02 03:37:37;;;;;;;10.48;4.53;;;;;;;0.99;100.00;98730.19;5034055;28;20063;-61
2024/02/02 03:40:04;;;;;;;12.88;4.07;;;;;;;0.93;100.00;98735.31;5022049;28;20174;-62
2024/02/02 03:42:31;;;;;;;8.73;4.07;;;;;;;0.99;100.00;98729.38;5042682;28;20113;-62
2024/02/02 03:44:57;;;;;;;10.38;3.75;;;;;;;1.01;100.00;98727.38;5025112;28;20044;-60
2024/02/02 03:47:24;;;;;;;9.68;4.38;;;;;;;1.02;100.00;98732.56;5038852;28;20068;-62
2024/02/02 03:49:50;;;;;;;9.35;3.50;;;;;;;1.07;100.00;98731.25;5032264;28;20059;-60
2024/02/02 03:52:22;;;;;;;9.27;3.78;;;;;;;0.96;100.00;98725.16;5032292;28;20044;-61
2024/02/02 03:54:50;;;;;;;11.07;4.00;;;;;;;0.99;100.00;98727.53;5019596;28;20044;-61
2024/02/02 03:57:17;;;;;;;9.82;4.07;;;;;;;1.03;100.00;98733.38;5029494;28;20042;-61
2024/02/02 03:59:44;;;;;;;11.32;4.13;;;;;;;1.22;100.00;98742.16;5034918;28;20535;-62
2024/02/02 04:02:11;;;;;;;13.77;4.22;;;;;;;1.26;100.00;98735.53;5043402;28;20098;-61
2024/02/02 04:04:38;;;;;;;17.35;4.47;;;;;;;1.32;100.00;98736.72;5038377;28;20051;-61
2024/02/02 04:07:04;;;;;;;8.27;3.72;;;;;;;1.41;100.00;98749.94;5047415;28;20041;-62
2024/02/02 04:09:32;;;;;;;9.40;3.72;;;;;;;1.42;100.00;98743.63;5048831;28;20048;-61
2024/02/02 04:11:59;;;;;;;9.68;3.65;;;;;;;1.56;100.00;98752.84;5050351;28;20728;-61
2024/02/02 04:14:25;;;;;;;8.10;3.25;;;;;;;1.47;100.00;98745.81;5038424;28;20034;-61
2024/02/02 04:16:52;;;;;;;9.18;3.55;;;;;;;1.42;100.00;98740.09;5028263;28;20072;-61
2024/02/02 04:19:20;;;;;;;9.00;3.40;;;;;;;1.43;100.00;98742.63;5047156;28;20138;-61
2024/02/02 04:21:47;;;;;;;10.23;4.05;;;;;;;1.26;100.00;98740.88;5037372;28;20045;-61
2024/02/02 04:24:14;;;;;;;8.10;3.85;;;;;;;1.16;100.00;98741.81;5042871;28;20048;-60
2024/02/02 04:26:40;;;;;;;9.73;4.15;;;;;;;1.09;100.00;98748.75;5050148;28;20072;-60
2024/02/02 04:29:07;;;;;;;6.97;3.47;;;;;;;1.01;100.00;98752.22;5044970;28;20053;-62
2024/02/02 04:31:33;;;;;;;10.43;4.38;;;;;;;1.07;100.00;98753.41;5039342;28;20052;-62
2024/02/02 04:34:00;;;;;;;8.35;4.18;;;;;;;1.16;100.00;98751.63;5039180;28;20037;-61
2024/02/02 04:36:27;;;;;;;11.02;3.78;;;;;;;1.34;100.00;98756.94;5037980;28;20065;-62
2024/02/02 04:38:54;;;;;;;7.53;3.90;;;;;;;1.28;100.00;98761.06;5059054;28;20072;-61
2024/02/02 04:41:20;;;;;;;12.20;4.28;;;;;;;1.36;100.00;98760.25;5037530;28;20072;-61
2024/02/02 04:43:47;;;;;;;10.90;4.22;;;;;;;1.29;100.00;98757.38;5035453;28;20069;-62
2024/02/02 04:46:14;;;;;;;12.35;5.70;;;;;;;1.31;100.00;98757.22;5038700;28;20040;-61
2024/02/02 04:48:40;;;;;;;15.13;4.80;;;;;;;1.42;100.00;98751.63;5047945;28;20427;-61
2024/02/02 04:51:07;;;;;;;11.32;4.38;;;;;;;1.61;100.00;98754.19;5039589;28;20048;-61
2024/02/02 04:53:34;;;;;;;8.23;4.22;;;;;;;1.81;100.00;98754.81;5038699;28;20036;-61
2024/02/02 04:56:00;;;;;;;7.80;3.47;;;;;;;1.81;100.00;98739.59;5044273;28;20051;-61
2024/02/02 04:58:27;;;;;;;7.53;4.07;;;;;;;1.68;100.00;98748.09;5046636;28;20041;-61
2024/02/02 05:00:53;;;;;;;9.05;4.10;;;;;;;1.55;100.00;98755.72;5036317;28;20045;-62
2024/02/02 05:03:20;;;;;;;9.30;4.50;;;;;;;1.58;100.00;98752.69;5032016;28;20136;-61
2024/02/02 05:05:47;;;;;;;11.98;4.43;;;;;;;1.71;100.00;98754.94;5041966;28;20077;-60
2024/02/02 05:08:14;;;;;;;9.13;4.50;;;;;;;1.62;100.00;98750.56;5039730;28;20068;-60
2024/02/02 05:10:41;;;;;;;9.10;4.75;;;;;;;1.57;100.00;98759.03;5036002;28;20508;-61
2024/02/02 05:13:08;;;;;;;9.32;4.78;;;;;;;1.56;100.00;98758.19;5035858;28;20140;-60
2024/02/02 05:15:35;;;;;;;12.10;5.13;;;;;;;1.55;100.00;98761.88;5038033;28;20044;-62
2024/02/02 05:18:02;;;;;;;8.73;4.65;;;;;;;1.58;100.00;98759.88;5036495;28;20131;-61
2024/02/02 05:20:29;;;;;;;9.68;4.65;;;;;;;1.60;100.00;98765.88;5048137;28;20048;-61
2024/02/02 05:22:55;;;;;;;10.15;4.63;;;;;;;1.64;100.00;98776.09;5058493;28;20047;-61
2024/02/02 05:25:22;;;;;;;12.05;5.45;;;;;;;1.78;100.00;98780.00;5029723;28;20427;-61
2024/02/02 05:27:49;;;;;;;11.60;5.20;;;;;;;1.74;100.00;98788.50;5039982;28;20102;-61
2024/02/02 05:30:15;;;;;;;11.48;5.55;;;;;;;1.67;100.00;98797.13;5042759;28;20049;-60
2024/02/02 05:32:42;;;;;;;10.40;5.60;;;;;;;1.76;100.00;98810.53;5035602;28;20150;-61
2024/02/02 05:35:09;;;;;;;9.43;4.88;;;;;;;1.90;100.00;98815.28;5047309;28;20071;-61
2024/02/02 05:37:35;;;;;;;12.68;5.07;;;;;;;1.86;100.00;98816.59;5054121;28;20055;-61
2024/02/02 05:40:03;;;;;;;17.30;5.30;;;;;;;1.86;100.00;98823.75;5059505;28;20040;-61
2024/02/02 05:42:29;;;;;;;10.25;4.80;;;;;;;1.85;100.00;98820.28;5052246;28;20033;-61
2024/02/02 05:44:56;;;;;;;10.40;5.15;;;;;;;1.85;100.00;98824.75;5038115;28;20045;-61
2024/02/02 05:47:23;;;;;;;10.25;5.13;;;;;;;1.78;100.00;98827.22;5047150;28;20045;-61
2024/02/02 05:49:49;;;;;;;10.38;5.13;;;;;;;1.75;100.00;98824.88;5053884;28;20709;-60
2024/02/02 05:52:16;;;;;;;11.18;4.95;;;;;;;1.78;100.00;98827.22;5047866;28;20045;-61
2024/02/02 05:54:42;;;;;;;10.38;5.10;;;;;;;1.79;100.00;98837.75;5042299;28;20052;-61
2024/02/02 05:57:09;;;;;;;10.00;5.72;;;;;;;1.78;100.00;98837.91;5042960;28;20048;-61
2024/02/02 05:59:36;;;;;;;11.68;5.60;;;;;;;1.74;100.00;98831.22;5040321;28;20045;-61
2024/02/02 06:02:02;;;;;;;11.60;5.50;;;;;;;1.83;100.00;98826.78;5042419;28;20044;-61
2024/02/02 06:04:29;;;;;;;11.55;5.43;;;;;;;1.81;100.00;98825.06;5049571;28;20719;-62
2024/02/02 06:06:55;;;;;;;12.95;6.43;;;;;;;1.86;100.00;98824.59;5053884;28;20124;-62
2024/02/02 06:09:22;;;;;;;12.55;5.90;;;;;;;1.88;100.00;98827.94;5051312;28;20582;-60
2024/02/02 06:11:49;;;;;;;12.73;6.82;;;;;;;1.91;100.00;98821.44;5053974;28;20067;-62
2024/02/02 06:14:16;;;;;;;13.20;6.55;;;;;;;1.92;100.00;98815.94;5049688;28;20041;-61
2024/02/02 06:16:42;;;;;;;10.15;6.88;;;;;;;2.02;100.00;98823.00;5055580;28;20037;-61
2024/02/02 06:19:09;;;;;;;12.30;7.47;;;;;;;2.07;100.00;98818.84;5051692;28;20052;-62
2024/02/02 06:21:35;;;;;;;13.02;6.70;;;;;;;2.07;100.00;98810.00;5040782;28;20109;-63
2024/02/02 06:24:02;;;;;;;13.07;7.50;;;;;;;2.17;100.00;98808.03;5053793;28;20102;-62
2024/02/02 06:26:29;;;;;;;11.20;6.60;;;;;;;2.18;100.00;98815.03;5039147;28;20436;-62
2024/02/02 06:28:55;;;;;;;9.95;5.80;;;;;;;2.23;100.00;98821.72;5044412;28;20340;-62
2024/02/02 06:31:24;;;;;;;11.90;6.28;;;;;;;2.30;100.00;98823.63;5045982;28;20064;-61
2024/02/02 06:33:50;;;;;;;10.30;6.18;;;;;;;2.28;100.00;98833.63;5045384;28;20051;-63
2024/02/02 06:36:17;;;;;;;8.50;4.93;;;;;;;2.25;100.00;98838.47;5045887;28;20084;-62
2024/02/02 06:38:44;;;;;;;11.27;5.65;;;;;;;2.29;100.00;98850.50;5040979;28;20041;-62
2024/02/02 06:41:10;;;;;;;13.15;5.93;;;;;;;2.38;100.00;98859.38;5042630;28;20052;-62
2024/02/02 06:43:37;;;;;;;10.55;6.28;;;;;;;2.39;100.00;98861.06;5059427;28;20048;-61
2024/02/02 06:46:04;;;;;;;11.93;5.95;;;;;;;2.50;100.00;98851.91;5048734;28;20051;-62
2024/02/02 06:48:30;;;;;;;9.43;5.07;;;;;;;2.37;100.00;98855.03;5044255;28;20033;-62
2024/02/02 06:50:57;;;;;;;8.45;4.90;;;;;;;2.37;100.00;98855.88;5033602;28;20558;-61
2024/02/02 06:53:29;;;;;;;9.32;5.32;;;;;;;2.40;100.00;98852.03;5046409;28;20053;-62
2024/02/02 06:55:55;;;;;;;8.57;4.90;;;;;;;2.37;100.00;98853.22;5043906;28;20123;-62
2024/02/02 06:58:40;;;;;;;8.57;4.45;;;;;;;2.50;100.00;98862.59;5036501;28;20048;-63
2024/02/02 07:01:08;;;;;;;6.93;4.20;;;;;;;2.59;100.00;98850.94;5032338;28;20037;-62
2024/02/02 07:03:36;;;;;;;10.93;4.70;;;;;;;2.37;100.00;98833.66;5040867;28;20049;-62
2024/02/02 07:06:06;;;;;;;8.80;4.57;;;;;;;2.33;100.00;98844.66;5037150;28;20040;-62
2024/02/02 07:08:33;;;;;;;9.05;4.85;;;;;;;2.61;100.00;98838.22;5044842;28;20048;-61
2024/02/02 07:11:32;;;;;;;10.88;5.05;;;;;;;2.55;100.00;98841.56;5036272;28;20063;-62
2024/02/02 07:14:00;;;;;;;9.48;5.35;;;;;;;2.50;100.00;98849.22;5041492;28;20473;-61
2024/02/02 07:16:28;;;;;;;9.73;5.50;;;;;;;2.50;100.00;98843.88;5046398;28;20052;-63
2024/02/02 07:18:56;;;;;;;12.02;6.72;;;;;;;2.47;100.00;98851.22;5056529;28;20040;-63
2024/02/02 07:21:37;;;;;;;10.55;6.05;;;;;;;2.58;100.00;98862.63;5050772;28;20041;-62
2024/02/02 07:24:04;;;;;;;9.02;5.03;;;;;;;2.72;100.00;98866.47;5045753;28;20586;-62
2024/02/02 07:26:32;;;;;;;9.60;6.03;;;;;;;2.61;100.00;98856.94;5054396;28;20487;-62
2024/02/02 07:28:58;;;;;;;10.68;5.65;;;;;;;2.45;100.00;98855.91;5038951;28;20073;-63
2024/02/02 07:31:37;;;;;;;9.93;5.50;;;;;;;2.47;100.00;98867.25;5027547;28;20117;-62
2024/02/02 07:34:42;;;;;;;9.02;5.45;;;;;;;2.57;100.00;98858.25;5049795;28;20044;-62
2024/02/02 07:37:17;;;;;;;9.13;5.82;;;;;;;2.68;100.00;98862.47;5044577;28;20112;-60
2024/02/02 07:39:43;;;;;;;10.07;5.88;;;;;;;2.79;100.00;98861.31;5048064;28;20043;-60
2024/02/02 07:42:10;;;;;;;9.93;5.63;;;;;;;2.94;100.00;98858.81;5037674;28;20047;-60
2024/02/02 07:44:38;;;;;;;9.13;5.20;;;;;;;2.90;100.00;98839.59;5043517;28;20680;-60
2024/02/02 07:47:05;;;;;;;9.90;5.63;;;;;;;2.91;100.00;98846.63;5045876;28;20044;-61
2024/02/02 07:49:31;;;;;;;9.05;5.30;;;;;;;3.03;100.00;98848.97;5037121;28;20132;-60
2024/02/02 07:51:58;;;;;;;9.25;5.72;;;;;;;3.12;100.00;98839.94;5044602;28;20511;-61
2024/02/02 07:54:24;;;;;;;9.45;5.22;;;;;;;3.12;100.00;98835.44;5041653;28;20037;-60
2024/02/02 07:56:51;;;;;;;9.38;6.15;;;;;;;3.21;100.00;98836.25;5046424;28;20773;-60
2024/02/02 07:59:18;;;;;;;11.20;6.07;;;;;;;3.22;100.00;98842.44;5040764;28;20073;-60
2024/02/02 08:01:44;;;;;;;8.23;5.30;;;;;;;3.33;100.00;98836.75;5047611;28;20254;-61
2024/02/02 08:04:11;;;;;;;9.05;4.90;;;;;;;3.39;100.00;98837.91;5037137;28;20527;-61
2024/02/02 08:06:38;;;;;;;9.55;5.20;;;;;;;3.55;100.00;98839.75;5040691;28;20098;-60
2024/02/02 08:09:09;;;;;;;11.60;5.40;;;;;;;3.57;100.00;98844.94;5038234;28;20048;-62
2024/02/02 08:11:35;;;;;;;7.72;4.90;;;;;;;3.67;100.00;98844.72;5050583;28;20127;-61
2024/02/02 08:14:02;;;;;;;7.45;4.72;;;;;;;3.76;100.00;98849.09;5052507;28;20051;-61
2024/02/02 08:16:29;;;;;;;9.40;5.50;;;;;;;3.67;100.00;98847.41;5041799;28;20042;-61
2024/02/02 08:18:56;;;;;;;9.50;6.00;;;;;;;3.71;100.00;98836.19;5051587;28;20844;-62
2024/02/02 08:21:24;;;;;;;11.05;5.28;;;;;;;3.79;100.00;98834.50;5044836;28;20045;-61
2024/02/02 08:23:50;;;;;;;10.25;5.68;;;;;;;3.71;100.00;98832.66;5055211;28;20127;-59
2024/02/02 08:26:17;;;;;;;11.48;5.78;;;;;;;3.68;100.00;98831.16;5046943;28;20048;-60
2024/02/02 08:28:44;;;;;;;7.47;4.95;;;;;;;3.72;100.00;98821.78;5050606;28;20040;-60
2024/02/02 08:31:21;;;;;;;13.07;6.05;;;;;;;3.75;100.00;98820.59;5029856;28;20548;-60
2024/02/02 08:33:47;;;;;;;9.13;5.70;;;;;;;3.79;100.00;98821.13;5036292;28;20107;-61
2024/02/02 08:36:15;;;;;;;9.38;5.85;;;;;;;3.93;100.00;98815.03;5043309;28;20044;-60
2024/02/02 08:38:41;;;;;;;7.60;4.65;;;;;;;4.03;100.00;98812.97;5038401;28;20051;-61
2024/02/02 08:41:08;;;;;;;8.55;4.97;;;;;;;4.23;100.00;98822.44;5038170;28;20049;-61
2024/02/02 08:43:35;;;;;;;7.05;4.60;;;;;;;4.42;100.00;98811.28;5037440;28;20537;-62
2024/02/02 08:46:12;;;;;;;9.18;4.05;;;;;;;4.52;100.00;98807.53;5046743;28;20126;-62
2024/02/02 08:48:46;;;;;;;8.90;4.28;;;;;;;4.55;100.00;98810.72;5053856;28;20051;-62
2024/02/02 08:51:29;;;;;;;6.78;4.05;;;;;;;4.58;100.00;98814.03;5048140;28;20560;-61
2024/02/02 08:54:16;;;;;;;6.75;4.25;;;;;;;4.60;100.00;98807.47;5044926;28;20045;-61
2024/02/02 08:57:01;;;;;;;7.40;3.83;;;;;;;4.70;100.00;98815.31;5036956;28;20047;-62
2024/02/02 08:59:43;;;;;;;7.75;4.25;;;;;;;4.62;100.00;98800.09;5043415;28;20157;-61
2024/02/02 09:02:39;;;;;;;9.68;4.88;;;;;;;4.68;100.00;98814.63;5052391;28;20067;-62
2024/02/02 09:05:18;;;;;;;7.28;4.80;;;;;;;4.73;100.00;98809.59;5039943;28;20116;-61
2024/02/02 09:08:08;;;;;;;7.15;4.38;;;;;;;4.84;100.00;98804.81;5051098;28;20502;-62
2024/02/02 09:10:36;;;;;;;9.65;4.63;;;;;;;4.91;100.00;98798.53;5041313;28;20038;-62
2024/02/02 09:13:04;;;;;;;8.18;4.22;;;;;;;4.86;100.00;98806.28;5042771;28;20044;-61
2024/02/02 09:15:33;;;;;;;7.57;4.18;;;;;;;4.99;100.00;98804.84;5033340;28;20121;-62
2024/02/02 09:18:00;;;;;;;7.10;4.13;;;;;;;5.00;100.00;98802.00;5047640;28;20051;-61
2024/02/02 09:20:50;;;;;;;10.07;4.28;;;;;;;5.24;100.00;98802.81;5042229;28;20036;-62
2024/02/02 09:23:17;;;;;;;8.65;4.18;;;;;;;5.42;100.00;98817.75;5053162;28;20052;-62
2024/02/02 09:25:45;;;;;;;5.50;3.53;;;;;;;5.47;100.00;98826.94;5048615;28;20033;-62
2024/02/02 09:28:24;;;;;;;5.82;3.55;;;;;;;5.42;100.00;98823.94;5052648;28;20045;-61
2024/02/02 09:30:56;;;;;;;6.07;3.55;;;;;;;5.43;100.00;98814.91;5050404;28;20068;-62
2024/02/02 09:33:38;;;;;;;7.32;3.80;;;;;;;5.52;100.00;98822.84;5045747;28;21272;-62
2024/02/02 09:36:06;;;;;;;6.47;3.95;;;;;;;5.56;100.00;98821.47;5049506;28;20052;-62
2024/02/02 09:38:34;;;;;;;6.82;4.00;;;;;;;5.46;100.00;98830.63;5049269;28;20044;-62
2024/02/02 09:41:01;;;;;;;6.35;3.65;;;;;;;5.71;100.00;98835.75;5051542;28;20049;-62
2024/02/02 09:44:04;;;;;;;6.07;3.47;;;;;;;5.69;100.00;98834.28;5047471;28;20036;-62
2024/02/02 09:46:49;;;;;;;7.50;4.13;;;;;;;5.59;100.00;98831.84;5038675;28;20708;-62
2024/02/02 09:49:35;;;;;;;6.28;3.80;;;;;;;5.81;100.00;98830.13;5047137;28;20480;-61
2024/02/02 09:52:05;;;;;;;6.70;3.83;;;;;;;5.98;100.00;98827.25;5052597;28;20044;-61
2024/02/02 09:54:37;;;;;;;7.47;3.38;;;;;;;6.04;100.00;98826.53;5054923;28;20041;-61
2024/02/02 09:57:29;;;;;;;6.85;3.55;;;;;;;6.19;100.00;98823.00;5050632;28;20060;-62
2024/02/02 10:00:06;;;;;;;7.18;3.35;;;;;;;5.98;100.00;98830.75;5033322;28;20049;-61
2024/02/02 10:02:54;;;;;;;6.28;2.80;;;;;;;5.89;100.00;98845.31;5046566;28;20041;-62
2024/02/02 10:05:48;;;;;;;4.90;2.75;;;;;;;5.97;100.00;98850.59;5042872;28;20040;-61
2024/02/02 10:08:34;;;;;;;5.45;2.67;;;;;;;6.09;100.00;98848.31;5048666;28;20044;-61
2024/02/02 10:11:49;;;;;;;4.53;2.72;;;;;;;6.27;100.00;98838.19;5050697;28;20542;-61
2024/02/02 10:14:43;;;;;;;5.70;2.97;;;;;;;6.02;100.00;98827.69;5042558;28;20138;-61
2024/02/02 10:17:47;;;;;;;7.13;3.55;;;;;;;6.03;100.00;98822.16;5046053;28;20036;-61
2024/02/02 10:20:23;;;;;;;5.70;2.97;;;;;;;6.12;100.00;98828.28;5047634;28;20045;-60
2024/02/02 10:23:22;;;;;;;6.40;3.40;;;;;;;6.33;100.00;98858.94;5044878;28;20774;-61
2024/02/02 10:26:14;;;;;;;5.00;2.88;;;;;;;6.49;100.00;98842.59;5043677;28;20512;-61
2024/02/02 10:28:54;;;;;;;51.90;6.80;;;;;;;6.54;100.00;98831.28;5053327;28;20501;-61
2024/02/02 10:31:37;;;;;;;5.07;2.58;;;;;;;6.62;100.00;98825.78;5046779;28;20051;-62
2024/02/02 10:34:30;;;;;;;4.75;2.88;;;;;;;6.75;100.00;98822.38;5046080;28;20142;-60
2024/02/02 10:37:14;;;;;;;4.75;2.50;;;;;;;6.61;100.00;98813.34;5036735;28;20045;-62
2024/02/02 10:40:00;;;;;;;5.30;2.53;;;;;;;6.56;100.00;98798.78;5044925;28;20041;-62
2024/02/02 10:42:47;;;;;;;4.03;2.20;;;;;;;6.83;100.00;98793.66;5048435;28;20040;-61
2024/02/02 10:45:33;;;;;;;7.13;2.38;;;;;;;6.90;100.00;98784.63;5046029;28;20083;-62
2024/02/02 10:48:18;;;;;;;4.28;2.33;;;;;;;6.98;100.00;98786.38;5038504;28;20098;-62
2024/02/02 10:51:15;;;;;;;3.38;1.70;;;;;;;7.00;100.00;98786.16;5036797;28;20057;-61
2024/02/02 10:54:10;;;;;;;4.38;1.77;;;;;;;6.87;100.00;98778.81;5044288;28;20110;-61
2024/02/02 10:57:01;;;;;;;3.60;1.75;;;;;;;6.93;100.00;98766.44;5048968;28;20071;-61
2024/02/02 10:59:49;;;;;;;6.35;2.28;;;;;;;7.00;100.00;98760.06;5048041;28;20550;-61
2024/02/02 11:02:40;;;;;;;3.53;2.17;;;;;;;7.10;100.00;98746.28;5038800;28;20208;-62
2024/02/02 11:05:28;;;;;;;4.50;1.42;;;;;;;7.37;100.00;98735.69;5043182;28;20077;-61
2024/02/02 11:08:01;;;;;;;3.60;1.70;;;;;;;7.35;100.00;98734.22;5047584;28;20044;-61
2024/02/02 11:10:34;;;;;;;2.85;1.40;;;;;;;7.53;100.00;98741.78;5043835;28;20526;-61
2024/02/02 11:13:20;;;;;;;3.60;1.33;;;;;;;7.63;100.00;98744.94;5050538;28;20051;-62
2024/02/02 11:16:06;;;;;;;2.60;1.10;;;;;;;7.66;100.00;98739.16;5037524;28;20059;-62
2024/02/02 11:18:51;;;;;;;2.40;1.58;;;;;;;7.72;100.00;98750.19;5043058;28;20045;-61
2024/02/02 11:21:32;;;;;;;3.55;1.20;;;;;;;7.85;100.00;98750.25;5037096;28;20121;-62
2024/02/02 11:24:14;;;;;;;2.73;0.90;;;;;;;7.96;100.00;98743.44;5045594;28;20568;-61
2024/02/02 11:26:50;;;;;;;;;;;;;;;7.92;100.00;98736.78;5038080;28;20305;-61
2024/02/02 11:29:54;;;;;;;1.50;0.95;;;;;;;7.96;100.00;98734.53;5048531;28;19928;-62
2024/02/02 11:32:43;;;;;;;2.40;1.20;;;;;;;8.07;100.00;98736.63;5048057;28;20098;-61
2024/02/02 11:35:31;;;;;;;1.92;1.00;;;;;;;8.18;100.00;98724.44;5050086;28;20094;-60
2024/02/02 11:38:04;;;;;;;2.92;1.20;;;;;;;8.42;100.00;98725.75;5038139;28;20143;-62
2024/02/02 11:40:33;;;;;;;4.60;0.95;;;;;;;8.26;100.00;98729.66;5047550;28;20071;-61
2024/02/02 11:43:02;;;;;;;1.65;0.93;;;;;;;8.32;100.00;98719.91;5047991;28;20064;-60
2024/02/02 11:45:36;;;;;;;2.42;1.40;;;;;;;8.45;100.00;98717.22;5050170;28;20519;-62
2024/02/02 11:48:04;;;;;;;1.33;0.88;;;;;;;8.64;100.00;98719.38;5035378;28;20128;-62
2024/02/02 11:50:43;;;;;;;1.58;0.70;;;;;;;8.62;99.47;98711.47;5033920;28;20561;-60